sensor_id;sensor_type;location;lat;lon;timestamp;temperature;humidity
21895;DHT22;11112;51.270;7.224;2023-04-23T00:01:30;14.20;99.90
21895;DHT22;11112;51.270;7.224;2023-04-23T00:04:00;14.20;99.90
21895;DHT22;11112;51.270;7.224;2023-04-23T00:06:28;14.20;99.90
21895;DHT22;11112;51.270;7.224;2023-04-23T00:08:59;14.20;99.90
21895;DHT22;11112;51.270;7.224;2023-04-23T00:11:28;14.20;99.90
21895;DHT22;11112;51.270;7.224;2023-04-23T00:13:56;14.20;99.90
21895;DHT22;11112;51.270;7.224;2023-04-23T00:16:25;14.20;99.90
21895;DHT22;11112;51.270;7.224;2023-04-23T00:18:54;14.20;99.90
21895;DHT22;11112;51.270;7.224;2023-04-23T00:21:21;14.20;99.90
21895;DHT22;11112;51.270;7.224;2023-04-23T00:23:52;14.10;99.90
21895;DHT22;11112;51.270;7.224;2023-04-23T00:26:19;14.10;99.90
21895;DHT22;11112;51.270;7.224;2023-04-23T00:28:47;14.10;99.90
21895;DHT22;11112;51.270;7.224;2023-04-23T00:31:14;14.10;99.90
21895;DHT22;11112;51.270;7.224;2023-04-23T00:33:41;14.10;99.90
21895;DHT22;11112;51.270;7.224;2023-04-23T00:36:09;14.10;99.90
21895;DHT22;11112;51.270;7.224;2023-04-23T00:38:36;14.10;99.90
21895;DHT22;11112;51.270;7.224;2023-04-23T00:41:04;14.10;99.90
21895;DHT22;11112;51.270;7.224;2023-04-23T00:43:32;14.10;99.90
21895;DHT22;11112;51.270;7.224;2023-04-23T00:46:00;14.10;99.90
21895;DHT22;11112;51.270;7.224;2023-04-23T00:48:29;14.10;99.90
21895;DHT22;11112;51.270;7.224;2023-04-23T00:50:59;14.10;99.90
21895;DHT22;11112;51.270;7.224;2023-04-23T00:53:31;14.10;99.90
21895;DHT22;11112;51.270;7.224;2023-04-23T00:56:00;14.10;99.90
21895;DHT22;11112;51.270;7.224;2023-04-23T00:58:27;14.10;99.90
21895;DHT22;11112;51.270;7.224;2023-04-23T01:00:55;14.10;99.90
21895;DHT22;11112;51.270;7.224;2023-04-23T01:03:24;14.00;99.90
21895;DHT22;11112;51.270;7.224;2023-04-23T01:05:54;14.00;99.90
21895;DHT22;11112;51.270;7.224;2023-04-23T01:08:23;14.00;99.90
21895;DHT22;11112;51.270;7.224;2023-04-23T01:10:52;14.00;99.90
21895;DHT22;11112;51.270;7.224;2023-04-23T01:13:20;14.00;99.90
21895;DHT22;11112;51.270;7.224;2023-04-23T01:15:49;14.00;99.90
21895;DHT22;11112;51.270;7.224;2023-04-23T01:18:17;14.00;99.90
21895;DHT22;11112;51.270;7.224;2023-04-23T01:20:45;14.00;99.90
21895;DHT22;11112;51.270;7.224;2023-04-23T01:23:15;14.00;99.90
21895;DHT22;11112;51.270;7.224;2023-04-23T01:25:43;14.00;99.90
21895;DHT22;11112;51.270;7.224;2023-04-23T01:28:10;14.00;99.90
21895;DHT22;11112;51.270;7.224;2023-04-23T01:30:38;14.00;99.90
21895;DHT22;11112;51.270;7.224;2023-04-23T01:33:08;14.00;99.90
21895;DHT22;11112;51.270;7.224;2023-04-23T01:35:36;14.00;99.90
21895;DHT22;11112;51.270;7.224;2023-04-23T01:38:04;14.00;99.90
21895;DHT22;11112;51.270;7.224;2023-04-23T01:40:35;14.00;99.90
21895;DHT22;11112;51.270;7.224;2023-04-23T01:43:04;14.00;99.90
21895;DHT22;11112;51.270;7.224;2023-04-23T01:45:31;13.90;99.90
21895;DHT22;11112;51.270;7.224;2023-04-23T01:47:59;13.90;99.90
21895;DHT22;11112;51.270;7.224;2023-04-23T01:50:27;13.90;99.90
21895;DHT22;11112;51.270;7.224;2023-04-23T01:52:55;13.90;99.90
21895;DHT22;11112;51.270;7.224;2023-04-23T01:55:22;13.90;99.90
21895;DHT22;11112;51.270;7.224;2023-04-23T01:57:51;13.90;99.90
21895;DHT22;11112;51.270;7.224;2023-04-23T02:00:18;13.90;99.90
21895;DHT22;11112;51.270;7.224;2023-04-23T02:02:46;13.90;99.90
21895;DHT22;11112;51.270;7.224;2023-04-23T02:05:15;13.80;99.90
21895;DHT22;11112;51.270;7.224;2023-04-23T02:07:44;13.80;99.90
21895;DHT22;11112;51.270;7.224;2023-04-23T02:10:12;13.80;99.90
21895;DHT22;11112;51.270;7.224;2023-04-23T02:12:39;13.80;99.90
21895;DHT22;11112;51.270;7.224;2023-04-23T02:15:09;13.80;99.90
21895;DHT22;11112;51.270;7.224;2023-04-23T02:17:37;13.70;99.90
21895;DHT22;11112;51.270;7.224;2023-04-23T02:20:07;13.70;99.90
21895;DHT22;11112;51.270;7.224;2023-04-23T02:22:36;13.60;99.90
21895;DHT22;11112;51.270;7.224;2023-04-23T02:25:05;13.60;99.90
21895;DHT22;11112;51.270;7.224;2023-04-23T02:27:33;13.60;99.90
21895;DHT22;11112;51.270;7.224;2023-04-23T02:30:00;13.60;99.90
21895;DHT22;11112;51.270;7.224;2023-04-23T02:32:29;13.50;99.90
21895;DHT22;11112;51.270;7.224;2023-04-23T02:34:56;13.40;99.90
21895;DHT22;11112;51.270;7.224;2023-04-23T02:37:26;13.40;99.90
21895;DHT22;11112;51.270;7.224;2023-04-23T02:39:53;13.40;99.90
21895;DHT22;11112;51.270;7.224;2023-04-23T02:42:21;13.40;99.90
21895;DHT22;11112;51.270;7.224;2023-04-23T02:44:48;13.30;99.90
21895;DHT22;11112;51.270;7.224;2023-04-23T02:47:16;13.30;99.90
21895;DHT22;11112;51.270;7.224;2023-04-23T02:49:45;13.30;99.90
21895;DHT22;11112;51.270;7.224;2023-04-23T02:52:12;13.40;99.90
21895;DHT22;11112;51.270;7.224;2023-04-23T02:54:39;13.40;99.90
21895;DHT22;11112;51.270;7.224;2023-04-23T02:57:07;13.50;99.90
21895;DHT22;11112;51.270;7.224;2023-04-23T02:59:34;13.50;99.90
21895;DHT22;11112;51.270;7.224;2023-04-23T03:02:02;13.50;99.90
21895;DHT22;11112;51.270;7.224;2023-04-23T03:04:29;13.50;99.90
21895;DHT22;11112;51.270;7.224;2023-04-23T03:06:59;13.50;99.90
21895;DHT22;11112;51.270;7.224;2023-04-23T03:09:26;13.40;99.90
21895;DHT22;11112;51.270;7.224;2023-04-23T03:11:54;13.40;99.90
21895;DHT22;11112;51.270;7.224;2023-04-23T03:14:22;13.40;99.90
21895;DHT22;11112;51.270;7.224;2023-04-23T03:16:49;13.30;99.90
21895;DHT22;11112;51.270;7.224;2023-04-23T03:19:16;13.30;99.90
21895;DHT22;11112;51.270;7.224;2023-04-23T03:21:43;13.30;99.90
21895;DHT22;11112;51.270;7.224;2023-04-23T03:24:13;13.30;99.90
21895;DHT22;11112;51.270;7.224;2023-04-23T03:26:41;13.30;99.90
21895;DHT22;11112;51.270;7.224;2023-04-23T03:29:09;13.30;99.90
21895;DHT22;11112;51.270;7.224;2023-04-23T03:31:36;13.20;99.90
21895;DHT22;11112;51.270;7.224;2023-04-23T03:34:03;13.10;99.90
21895;DHT22;11112;51.270;7.224;2023-04-23T03:36:31;13.10;99.90
21895;DHT22;11112;51.270;7.224;2023-04-23T03:38:59;13.10;99.90
21895;DHT22;11112;51.270;7.224;2023-04-23T03:41:28;13.10;99.90
21895;DHT22;11112;51.270;7.224;2023-04-23T03:43:55;13.10;99.90
21895;DHT22;11112;51.270;7.224;2023-04-23T03:46:22;13.10;99.90
21895;DHT22;11112;51.270;7.224;2023-04-23T03:48:50;13.10;99.90
21895;DHT22;11112;51.270;7.224;2023-04-23T03:51:17;13.10;99.90
21895;DHT22;11112;51.270;7.224;2023-04-23T03:53:44;13.10;99.90
21895;DHT22;11112;51.270;7.224;2023-04-23T03:56:12;13.10;99.90
21895;DHT22;11112;51.270;7.224;2023-04-23T03:58:40;13.00;99.90
21895;DHT22;11112;51.270;7.224;2023-04-23T04:01:07;13.00;99.90
21895;DHT22;11112;51.270;7.224;2023-04-23T04:03:35;13.00;99.90
21895;DHT22;11112;51.270;7.224;2023-04-23T04:06:02;13.00;99.90
21895;DHT22;11112;51.270;7.224;2023-04-23T04:08:30;12.90;99.90
21895;DHT22;11112;51.270;7.224;2023-04-23T04:10:57;12.90;99.90
21895;DHT22;11112;51.270;7.224;2023-04-23T04:13:25;12.90;99.90
21895;DHT22;11112;51.270;7.224;2023-04-23T04:15:53;12.90;99.90
21895;DHT22;11112;51.270;7.224;2023-04-23T04:18:20;12.90;99.90
21895;DHT22;11112;51.270;7.224;2023-04-23T04:20:48;12.90;99.90
21895;DHT22;11112;51.270;7.224;2023-04-23T04:23:16;12.90;99.90
21895;DHT22;11112;51.270;7.224;2023-04-23T04:25:43;12.80;99.90
21895;DHT22;11112;51.270;7.224;2023-04-23T04:28:10;12.80;99.90
21895;DHT22;11112;51.270;7.224;2023-04-23T04:30:38;12.70;99.90
21895;DHT22;11112;51.270;7.224;2023-04-23T04:33:08;12.70;99.90
21895;DHT22;11112;51.270;7.224;2023-04-23T04:35:35;12.70;99.90
21895;DHT22;11112;51.270;7.224;2023-04-23T04:38:02;12.70;99.90
21895;DHT22;11112;51.270;7.224;2023-04-23T04:40:30;12.70;99.90
21895;DHT22;11112;51.270;7.224;2023-04-23T04:42:58;12.70;99.90
21895;DHT22;11112;51.270;7.224;2023-04-23T04:45:30;12.60;99.90
21895;DHT22;11112;51.270;7.224;2023-04-23T04:47:57;12.60;99.90
21895;DHT22;11112;51.270;7.224;2023-04-23T04:50:25;12.60;99.90
21895;DHT22;11112;51.270;7.224;2023-04-23T04:52:53;12.60;99.90
21895;DHT22;11112;51.270;7.224;2023-04-23T04:55:20;12.50;99.90
21895;DHT22;11112;51.270;7.224;2023-04-23T04:57:48;12.50;99.90
21895;DHT22;11112;51.270;7.224;2023-04-23T05:00:20;12.50;99.90
21895;DHT22;11112;51.270;7.224;2023-04-23T05:02:49;12.50;99.90
21895;DHT22;11112;51.270;7.224;2023-04-23T05:05:17;12.50;99.90
21895;DHT22;11112;51.270;7.224;2023-04-23T05:07:47;12.50;99.90
21895;DHT22;11112;51.270;7.224;2023-04-23T05:10:14;12.60;99.90
21895;DHT22;11112;51.270;7.224;2023-04-23T05:12:42;12.70;99.90
21895;DHT22;11112;51.270;7.224;2023-04-23T05:15:11;12.70;99.90
21895;DHT22;11112;51.270;7.224;2023-04-23T05:17:39;12.70;99.90
21895;DHT22;11112;51.270;7.224;2023-04-23T05:20:07;12.70;99.90
21895;DHT22;11112;51.270;7.224;2023-04-23T05:22:36;12.70;99.90
21895;DHT22;11112;51.270;7.224;2023-04-23T05:25:06;12.80;99.90
21895;DHT22;11112;51.270;7.224;2023-04-23T05:27:34;12.90;99.90
21895;DHT22;11112;51.270;7.224;2023-04-23T05:30:03;12.90;99.90
21895;DHT22;11112;51.270;7.224;2023-04-23T05:32:33;12.90;99.90
21895;DHT22;11112;51.270;7.224;2023-04-23T05:35:00;13.00;99.90
21895;DHT22;11112;51.270;7.224;2023-04-23T05:37:28;13.00;99.90
21895;DHT22;11112;51.270;7.224;2023-04-23T05:39:56;13.00;99.90
21895;DHT22;11112;51.270;7.224;2023-04-23T05:42:25;12.90;99.90
21895;DHT22;11112;51.270;7.224;2023-04-23T05:44:52;13.00;99.90
21895;DHT22;11112;51.270;7.224;2023-04-23T05:47:20;13.00;99.90
21895;DHT22;11112;51.270;7.224;2023-04-23T05:49:48;13.00;99.90
21895;DHT22;11112;51.270;7.224;2023-04-23T05:52:15;13.00;99.90
21895;DHT22;11112;51.270;7.224;2023-04-23T05:54:42;13.10;99.90
21895;DHT22;11112;51.270;7.224;2023-04-23T05:57:10;13.20;99.90
21895;DHT22;11112;51.270;7.224;2023-04-23T05:59:39;13.20;99.90
21895;DHT22;11112;51.270;7.224;2023-04-23T06:02:06;13.20;99.90
21895;DHT22;11112;51.270;7.224;2023-04-23T06:04:33;13.20;99.90
21895;DHT22;11112;51.270;7.224;2023-04-23T06:07:01;13.20;99.90
21895;DHT22;11112;51.270;7.224;2023-04-23T06:09:28;13.20;99.90
21895;DHT22;11112;51.270;7.224;2023-04-23T06:11:55;13.20;99.90
21895;DHT22;11112;51.270;7.224;2023-04-23T06:14:23;13.30;99.90
21895;DHT22;11112;51.270;7.224;2023-04-23T06:16:51;13.30;99.90
21895;DHT22;11112;51.270;7.224;2023-04-23T06:19:19;13.30;99.90
21895;DHT22;11112;51.270;7.224;2023-04-23T06:21:46;13.30;99.90
21895;DHT22;11112;51.270;7.224;2023-04-23T06:24:13;13.40;99.90
21895;DHT22;11112;51.270;7.224;2023-04-23T06:26:41;13.40;99.90
21895;DHT22;11112;51.270;7.224;2023-04-23T06:29:08;13.40;99.90
21895;DHT22;11112;51.270;7.224;2023-04-23T06:31:35;13.50;99.90
21895;DHT22;11112;51.270;7.224;2023-04-23T06:34:05;13.50;99.90
21895;DHT22;11112;51.270;7.224;2023-04-23T06:36:33;13.60;99.90
21895;DHT22;11112;51.270;7.224;2023-04-23T06:39:00;13.60;99.90
21895;DHT22;11112;51.270;7.224;2023-04-23T06:41:28;13.60;99.90
21895;DHT22;11112;51.270;7.224;2023-04-23T06:43:55;13.70;99.90
21895;DHT22;11112;51.270;7.224;2023-04-23T06:46:22;13.80;99.90
21895;DHT22;11112;51.270;7.224;2023-04-23T06:48:49;13.90;99.90
21895;DHT22;11112;51.270;7.224;2023-04-23T06:51:18;13.90;99.90
21895;DHT22;11112;51.270;7.224;2023-04-23T06:53:46;13.90;99.90
21895;DHT22;11112;51.270;7.224;2023-04-23T06:56:14;13.90;99.90
21895;DHT22;11112;51.270;7.224;2023-04-23T06:58:41;13.90;99.90
21895;DHT22;11112;51.270;7.224;2023-04-23T07:01:09;13.90;99.90
21895;DHT22;11112;51.270;7.224;2023-04-23T07:03:36;14.00;99.90
21895;DHT22;11112;51.270;7.224;2023-04-23T07:06:03;14.00;99.90
21895;DHT22;11112;51.270;7.224;2023-04-23T07:08:33;14.10;99.90
21895;DHT22;11112;51.270;7.224;2023-04-23T07:11:00;14.10;99.90
21895;DHT22;11112;51.270;7.224;2023-04-23T07:13:28;14.10;99.90
21895;DHT22;11112;51.270;7.224;2023-04-23T07:15:55;14.10;99.90
21895;DHT22;11112;51.270;7.224;2023-04-23T07:18:23;14.10;99.90
21895;DHT22;11112;51.270;7.224;2023-04-23T07:20:50;14.10;99.90
21895;DHT22;11112;51.270;7.224;2023-04-23T07:23:17;14.10;99.90
21895;DHT22;11112;51.270;7.224;2023-04-23T07:25:46;14.10;99.90
21895;DHT22;11112;51.270;7.224;2023-04-23T07:28:13;14.20;99.90
21895;DHT22;11112;51.270;7.224;2023-04-23T07:30:40;14.20;99.90
21895;DHT22;11112;51.270;7.224;2023-04-23T07:33:08;14.30;99.90
21895;DHT22;11112;51.270;7.224;2023-04-23T07:35:36;14.30;99.90
21895;DHT22;11112;51.270;7.224;2023-04-23T07:38:03;14.40;99.90
21895;DHT22;11112;51.270;7.224;2023-04-23T07:40:31;14.50;99.90
21895;DHT22;11112;51.270;7.224;2023-04-23T07:42:59;14.60;99.90
21895;DHT22;11112;51.270;7.224;2023-04-23T07:45:27;14.60;99.90
21895;DHT22;11112;51.270;7.224;2023-04-23T07:47:54;14.70;99.90
21895;DHT22;11112;51.270;7.224;2023-04-23T07:50:22;14.80;99.90
21895;DHT22;11112;51.270;7.224;2023-04-23T07:52:50;14.80;99.90
21895;DHT22;11112;51.270;7.224;2023-04-23T07:55:17;14.80;99.90
21895;DHT22;11112;51.270;7.224;2023-04-23T07:57:46;14.90;99.90
21895;DHT22;11112;51.270;7.224;2023-04-23T08:00:15;14.90;99.90
21895;DHT22;11112;51.270;7.224;2023-04-23T08:02:42;15.00;99.90
21895;DHT22;11112;51.270;7.224;2023-04-23T08:05:10;15.10;99.90
21895;DHT22;11112;51.270;7.224;2023-04-23T08:07:37;15.10;99.90
21895;DHT22;11112;51.270;7.224;2023-04-23T08:10:05;15.20;99.90
21895;DHT22;11112;51.270;7.224;2023-04-23T08:12:34;15.20;99.90
21895;DHT22;11112;51.270;7.224;2023-04-23T08:15:01;15.30;99.90
21895;DHT22;11112;51.270;7.224;2023-04-23T08:17:29;15.30;99.90
21895;DHT22;11112;51.270;7.224;2023-04-23T08:19:57;15.30;99.90
21895;DHT22;11112;51.270;7.224;2023-04-23T08:22:24;15.30;99.90
21895;DHT22;11112;51.270;7.224;2023-04-23T08:24:51;15.40;99.90
21895;DHT22;11112;51.270;7.224;2023-04-23T08:27:18;15.40;99.90
21895;DHT22;11112;51.270;7.224;2023-04-23T08:29:46;15.40;99.90
21895;DHT22;11112;51.270;7.224;2023-04-23T08:32:13;15.50;99.90
21895;DHT22;11112;51.270;7.224;2023-04-23T08:34:41;15.50;99.90
21895;DHT22;11112;51.270;7.224;2023-04-23T08:37:08;15.50;99.90
21895;DHT22;11112;51.270;7.224;2023-04-23T08:39:36;15.50;99.90
21895;DHT22;11112;51.270;7.224;2023-04-23T08:42:09;15.50;99.90
21895;DHT22;11112;51.270;7.224;2023-04-23T08:44:40;15.60;99.90
21895;DHT22;11112;51.270;7.224;2023-04-23T08:47:10;15.60;99.90
21895;DHT22;11112;51.270;7.224;2023-04-23T08:49:42;15.60;99.90
21895;DHT22;11112;51.270;7.224;2023-04-23T08:52:15;15.60;99.90
21895;DHT22;11112;51.270;7.224;2023-04-23T08:54:47;15.70;99.90
21895;DHT22;11112;51.270;7.224;2023-04-23T08:57:16;15.70;99.90
21895;DHT22;11112;51.270;7.224;2023-04-23T08:59:45;15.70;99.90
21895;DHT22;11112;51.270;7.224;2023-04-23T09:02:16;15.70;99.90
21895;DHT22;11112;51.270;7.224;2023-04-23T09:04:45;15.70;99.90
21895;DHT22;11112;51.270;7.224;2023-04-23T09:07:13;15.60;99.90
21895;DHT22;11112;51.270;7.224;2023-04-23T09:09:42;15.60;99.90
21895;DHT22;11112;51.270;7.224;2023-04-23T09:12:10;15.60;99.90
21895;DHT22;11112;51.270;7.224;2023-04-23T09:14:37;15.60;99.90
21895;DHT22;11112;51.270;7.224;2023-04-23T09:17:07;15.60;99.90
21895;DHT22;11112;51.270;7.224;2023-04-23T09:19:35;15.60;99.90
21895;DHT22;11112;51.270;7.224;2023-04-23T09:22:06;15.60;99.90
21895;DHT22;11112;51.270;7.224;2023-04-23T09:24:34;15.60;99.90
21895;DHT22;11112;51.270;7.224;2023-04-23T09:27:02;15.60;99.90
21895;DHT22;11112;51.270;7.224;2023-04-23T09:29:29;15.60;99.90
21895;DHT22;11112;51.270;7.224;2023-04-23T09:32:06;15.70;99.90
21895;DHT22;11112;51.270;7.224;2023-04-23T09:34:36;15.70;99.90
21895;DHT22;11112;51.270;7.224;2023-04-23T09:37:05;15.70;99.90
21895;DHT22;11112;51.270;7.224;2023-04-23T09:39:35;15.70;99.90
21895;DHT22;11112;51.270;7.224;2023-04-23T09:42:04;15.70;99.90
21895;DHT22;11112;51.270;7.224;2023-04-23T09:44:34;15.80;99.90
21895;DHT22;11112;51.270;7.224;2023-04-23T09:47:07;15.80;99.90
21895;DHT22;11112;51.270;7.224;2023-04-23T09:49:46;15.90;99.90
21895;DHT22;11112;51.270;7.224;2023-04-23T09:52:16;15.90;99.80
21895;DHT22;11112;51.270;7.224;2023-04-23T09:54:43;15.90;99.80
21895;DHT22;11112;51.270;7.224;2023-04-23T09:57:12;15.80;99.80
21895;DHT22;11112;51.270;7.224;2023-04-23T09:59:39;15.80;99.40
21895;DHT22;11112;51.270;7.224;2023-04-23T10:02:07;15.80;99.90
21895;DHT22;11112;51.270;7.224;2023-04-23T10:04:36;16.00;99.50
21895;DHT22;11112;51.270;7.224;2023-04-23T10:07:04;16.00;99.00
21895;DHT22;11112;51.270;7.224;2023-04-23T10:09:39;16.10;98.50
21895;DHT22;11112;51.270;7.224;2023-04-23T10:12:07;16.10;98.00
21895;DHT22;11112;51.270;7.224;2023-04-23T10:14:35;16.10;97.60
21895;DHT22;11112;51.270;7.224;2023-04-23T10:17:05;16.00;97.70
21895;DHT22;11112;51.270;7.224;2023-04-23T10:19:33;16.00;97.80
21895;DHT22;11112;51.270;7.224;2023-04-23T10:22:08;16.00;97.40
21895;DHT22;11112;51.270;7.224;2023-04-23T10:24:40;16.00;97.50
21895;DHT22;11112;51.270;7.224;2023-04-23T10:27:11;16.00;97.50
21895;DHT22;11112;51.270;7.224;2023-04-23T10:29:40;16.00;97.30
21895;DHT22;11112;51.270;7.224;2023-04-23T10:32:07;16.10;97.50
21895;DHT22;11112;51.270;7.224;2023-04-23T10:34:35;16.10;97.60
21895;DHT22;11112;51.270;7.224;2023-04-23T10:37:03;16.10;97.70
21895;DHT22;11112;51.270;7.224;2023-04-23T10:39:31;16.10;97.80
21895;DHT22;11112;51.270;7.224;2023-04-23T10:42:02;16.10;97.50
21895;DHT22;11112;51.270;7.224;2023-04-23T10:44:31;16.20;97.60
21895;DHT22;11112;51.270;7.224;2023-04-23T10:47:03;16.20;97.20
21895;DHT22;11112;51.270;7.224;2023-04-23T10:49:33;16.20;97.40
21895;DHT22;11112;51.270;7.224;2023-04-23T10:52:02;16.20;97.30
21895;DHT22;11112;51.270;7.224;2023-04-23T10:54:31;16.20;97.30
21895;DHT22;11112;51.270;7.224;2023-04-23T10:57:02;16.20;97.50
21895;DHT22;11112;51.270;7.224;2023-04-23T10:59:32;16.30;97.50
21895;DHT22;11112;51.270;7.224;2023-04-23T11:02:06;16.30;97.10
21895;DHT22;11112;51.270;7.224;2023-04-23T11:04:35;16.30;97.30
21895;DHT22;11112;51.270;7.224;2023-04-23T11:07:08;16.30;97.00
21895;DHT22;11112;51.270;7.224;2023-04-23T11:09:37;16.30;97.20
21895;DHT22;11112;51.270;7.224;2023-04-23T11:12:09;16.30;97.40
21895;DHT22;11112;51.270;7.224;2023-04-23T11:14:45;16.30;97.20
21895;DHT22;11112;51.270;7.224;2023-04-23T11:17:14;16.30;96.70
21895;DHT22;11112;51.270;7.224;2023-04-23T11:20:08;16.30;96.50
21895;DHT22;11112;51.270;7.224;2023-04-23T11:22:39;16.30;96.00
21895;DHT22;11112;51.270;7.224;2023-04-23T11:25:08;16.30;95.80
21895;DHT22;11112;51.270;7.224;2023-04-23T11:27:40;16.30;94.90
21895;DHT22;11112;51.270;7.224;2023-04-23T11:30:11;16.30;94.50
21895;DHT22;11112;51.270;7.224;2023-04-23T11:32:40;16.30;93.80
21895;DHT22;11112;51.270;7.224;2023-04-23T11:35:12;16.40;93.70
21895;DHT22;11112;51.270;7.224;2023-04-23T11:37:41;16.40;93.20
21895;DHT22;11112;51.270;7.224;2023-04-23T11:40:11;16.40;93.30
21895;DHT22;11112;51.270;7.224;2023-04-23T11:42:45;16.50;93.00
21895;DHT22;11112;51.270;7.224;2023-04-23T11:45:21;16.50;92.50
21895;DHT22;11112;51.270;7.224;2023-04-23T11:47:51;16.50;92.40
21895;DHT22;11112;51.270;7.224;2023-04-23T11:50:23;16.60;92.60
21895;DHT22;11112;51.270;7.224;2023-04-23T11:52:51;16.60;91.80
21895;DHT22;11112;51.270;7.224;2023-04-23T11:55:19;16.60;91.30
21895;DHT22;11112;51.270;7.224;2023-04-23T11:57:49;16.60;90.50
21895;DHT22;11112;51.270;7.224;2023-04-23T12:00:19;16.60;90.40
21895;DHT22;11112;51.270;7.224;2023-04-23T12:02:52;16.60;90.60
21895;DHT22;11112;51.270;7.224;2023-04-23T12:05:21;16.60;91.00
21895;DHT22;11112;51.270;7.224;2023-04-23T12:07:50;16.60;91.20
21895;DHT22;11112;51.270;7.224;2023-04-23T12:10:18;16.60;91.10
21895;DHT22;11112;51.270;7.224;2023-04-23T12:12:51;16.60;91.40
21895;DHT22;11112;51.270;7.224;2023-04-23T12:15:19;16.70;91.50
21895;DHT22;11112;51.270;7.224;2023-04-23T12:17:48;16.70;91.30
21895;DHT22;11112;51.270;7.224;2023-04-23T12:20:18;16.70;91.00
21895;DHT22;11112;51.270;7.224;2023-04-23T12:22:46;16.80;90.50
21895;DHT22;11112;51.270;7.224;2023-04-23T12:25:13;16.80;89.30
21895;DHT22;11112;51.270;7.224;2023-04-23T12:27:43;16.90;88.10
21895;DHT22;11112;51.270;7.224;2023-04-23T12:30:12;16.90;87.70
21895;DHT22;11112;51.270;7.224;2023-04-23T12:32:40;16.90;89.00
21895;DHT22;11112;51.270;7.224;2023-04-23T12:35:08;16.90;88.90
21895;DHT22;11112;51.270;7.224;2023-04-23T12:37:36;16.90;89.50
21895;DHT22;11112;51.270;7.224;2023-04-23T12:40:04;16.80;90.00
21895;DHT22;11112;51.270;7.224;2023-04-23T12:42:33;16.90;88.20
21895;DHT22;11112;51.270;7.224;2023-04-23T12:45:07;16.90;87.20
21895;DHT22;11112;51.270;7.224;2023-04-23T12:47:37;16.90;87.90
21895;DHT22;11112;51.270;7.224;2023-04-23T12:50:05;16.90;88.30
21895;DHT22;11112;51.270;7.224;2023-04-23T12:52:33;16.90;89.00
21895;DHT22;11112;51.270;7.224;2023-04-23T12:55:00;16.90;88.30
21895;DHT22;11112;51.270;7.224;2023-04-23T12:57:29;16.90;87.70
21895;DHT22;11112;51.270;7.224;2023-04-23T12:59:56;16.90;87.10
21895;DHT22;11112;51.270;7.224;2023-04-23T13:02:24;17.00;88.20
21895;DHT22;11112;51.270;7.224;2023-04-23T13:04:53;17.00;88.50
21895;DHT22;11112;51.270;7.224;2023-04-23T13:07:25;17.00;88.90
21895;DHT22;11112;51.270;7.224;2023-04-23T13:09:52;17.00;88.50
21895;DHT22;11112;51.270;7.224;2023-04-23T13:12:21;17.00;87.80
21895;DHT22;11112;51.270;7.224;2023-04-23T13:14:51;17.00;87.40
21895;DHT22;11112;51.270;7.224;2023-04-23T13:17:18;17.00;85.70
21895;DHT22;11112;51.270;7.224;2023-04-23T13:19:45;17.00;84.30
21895;DHT22;11112;51.270;7.224;2023-04-23T13:22:14;17.00;83.50
21895;DHT22;11112;51.270;7.224;2023-04-23T13:24:42;17.00;79.10
21895;DHT22;11112;51.270;7.224;2023-04-23T13:27:09;17.00;80.20
21895;DHT22;11112;51.270;7.224;2023-04-23T13:29:36;17.00;81.30
21895;DHT22;11112;51.270;7.224;2023-04-23T13:32:04;17.00;80.40
21895;DHT22;11112;51.270;7.224;2023-04-23T13:34:32;17.10;81.30
21895;DHT22;11112;51.270;7.224;2023-04-23T13:37:01;17.00;81.20
21895;DHT22;11112;51.270;7.224;2023-04-23T13:39:32;17.00;82.10
21895;DHT22;11112;51.270;7.224;2023-04-23T13:41:59;17.00;82.10
21895;DHT22;11112;51.270;7.224;2023-04-23T13:44:26;17.00;81.90
21895;DHT22;11112;51.270;7.224;2023-04-23T13:46:54;17.00;81.10
21895;DHT22;11112;51.270;7.224;2023-04-23T13:49:26;17.00;81.30
21895;DHT22;11112;51.270;7.224;2023-04-23T13:51:54;17.00;80.60
21895;DHT22;11112;51.270;7.224;2023-04-23T13:54:24;17.10;80.40
21895;DHT22;11112;51.270;7.224;2023-04-23T13:56:54;17.10;80.90
21895;DHT22;11112;51.270;7.224;2023-04-23T13:59:22;17.10;80.20
21895;DHT22;11112;51.270;7.224;2023-04-23T14:01:49;17.00;80.70
21895;DHT22;11112;51.270;7.224;2023-04-23T14:04:17;17.00;80.80
21895;DHT22;11112;51.270;7.224;2023-04-23T14:06:47;17.10;80.20
21895;DHT22;11112;51.270;7.224;2023-04-23T14:09:14;17.10;80.40
21895;DHT22;11112;51.270;7.224;2023-04-23T14:11:41;17.20;81.10
21895;DHT22;11112;51.270;7.224;2023-04-23T14:14:10;17.10;81.70
21895;DHT22;11112;51.270;7.224;2023-04-23T14:16:37;17.20;80.70
21895;DHT22;11112;51.270;7.224;2023-04-23T14:19:05;17.20;80.50
21895;DHT22;11112;51.270;7.224;2023-04-23T14:21:32;17.10;80.50
21895;DHT22;11112;51.270;7.224;2023-04-23T14:24:01;17.10;80.80
21895;DHT22;11112;51.270;7.224;2023-04-23T14:26:35;17.00;81.40
21895;DHT22;11112;51.270;7.224;2023-04-23T14:29:17;17.10;81.50
21895;DHT22;11112;51.270;7.224;2023-04-23T14:31:45;17.00;81.70
21895;DHT22;11112;51.270;7.224;2023-04-23T14:34:12;17.00;81.80
21895;DHT22;11112;51.270;7.224;2023-04-23T14:36:39;17.10;81.40
21895;DHT22;11112;51.270;7.224;2023-04-23T14:39:07;17.00;81.90
21895;DHT22;11112;51.270;7.224;2023-04-23T14:41:35;17.00;82.20
21895;DHT22;11112;51.270;7.224;2023-04-23T14:44:04;17.00;81.80
21895;DHT22;11112;51.270;7.224;2023-04-23T14:46:33;17.00;82.30
21895;DHT22;11112;51.270;7.224;2023-04-23T14:49:00;17.00;82.60
21895;DHT22;11112;51.270;7.224;2023-04-23T14:51:28;17.00;82.80
21895;DHT22;11112;51.270;7.224;2023-04-23T14:53:56;16.90;84.30
21895;DHT22;11112;51.270;7.224;2023-04-23T14:56:23;16.90;85.50
21895;DHT22;11112;51.270;7.224;2023-04-23T14:58:52;16.90;86.10
21895;DHT22;11112;51.270;7.224;2023-04-23T15:01:19;16.80;87.00
21895;DHT22;11112;51.270;7.224;2023-04-23T15:03:48;16.80;87.50
21895;DHT22;11112;51.270;7.224;2023-04-23T15:06:15;16.80;87.20
21895;DHT22;11112;51.270;7.224;2023-04-23T15:08:43;16.80;88.10
21895;DHT22;11112;51.270;7.224;2023-04-23T15:11:11;16.70;88.40
21895;DHT22;11112;51.270;7.224;2023-04-23T15:13:44;16.70;89.10
21895;DHT22;11112;51.270;7.224;2023-04-23T15:16:23;16.60;89.50
21895;DHT22;11112;51.270;7.224;2023-04-23T15:18:55;16.70;90.10
21895;DHT22;11112;51.270;7.224;2023-04-23T15:21:24;16.70;90.40
21895;DHT22;11112;51.270;7.224;2023-04-23T15:23:52;16.60;90.60
21895;DHT22;11112;51.270;7.224;2023-04-23T15:26:20;16.60;90.90
21895;DHT22;11112;51.270;7.224;2023-04-23T15:28:48;16.60;90.80
21895;DHT22;11112;51.270;7.224;2023-04-23T15:31:16;16.50;91.00
21895;DHT22;11112;51.270;7.224;2023-04-23T15:33:43;16.50;91.00
21895;DHT22;11112;51.270;7.224;2023-04-23T15:36:14;16.50;91.50
21895;DHT22;11112;51.270;7.224;2023-04-23T15:38:41;16.50;91.40